createdAt,value
2018-07-06T00:02:35.076Z,77.82
2018-07-06T00:05:15.285Z,78.09
2018-07-06T00:07:55.184Z,77.46
2018-07-06T00:10:35.295Z,77.43
2018-07-06T00:13:15.004Z,77.84
2018-07-06T00:15:54.970Z,76.93
2018-07-06T00:18:35.983Z,77.15
2018-07-06T00:21:16.608Z,77.28
2018-07-06T00:23:56.445Z,77.64
2018-07-06T00:26:36.175Z,77.56
2018-07-06T00:29:16.724Z,77.65
2018-07-06T00:31:56.933Z,77.18
2018-07-06T00:34:36.641Z,77.81
2018-07-06T00:37:17.014Z,77.52
2018-07-06T00:39:56.718Z,77.00
2018-07-06T00:42:36.430Z,77.76
2018-07-06T00:45:16.892Z,77.81
2018-07-06T00:47:56.942Z,77.59
2018-07-06T00:50:37.368Z,77.80
2018-07-06T00:53:17.139Z,77.83
2018-07-06T00:55:57.222Z,78.28
2018-07-06T00:58:37.996Z,78.99
2018-07-06T01:01:18.454Z,78.72
2018-07-06T01:03:58.387Z,79.02
2018-07-06T01:06:38.311Z,79.45
2018-07-06T01:09:18.418Z,79.23
2018-07-06T01:12:02.395Z,78.58
2018-07-06T01:14:42.277Z,78.51
2018-07-06T01:17:22.200Z,78.49
2018-07-06T01:20:02.148Z,78.22
2018-07-06T01:22:42.685Z,79.10
2018-07-06T01:25:22.491Z,78.17
2018-07-06T01:28:02.291Z,78.38
2018-07-06T01:30:42.039Z,78.19
2018-07-06T01:33:21.738Z,78.96
2018-07-06T01:36:01.461Z,79.30
2018-07-06T01:38:41.207Z,79.42
2018-07-06T01:41:21.123Z,78.27
2018-07-06T01:44:01.829Z,78.92
2018-07-06T01:46:41.638Z,78.25
2018-07-06T01:49:21.230Z,77.98
2018-07-06T01:52:00.893Z,77.88
2018-07-06T01:54:40.599Z,77.43
2018-07-06T01:57:21.156Z,78.95
2018-07-06T02:00:00.811Z,79.17
2018-07-06T02:02:40.822Z,78.71
2018-07-06T02:05:20.799Z,77.75
2018-07-06T02:08:01.425Z,79.70
2018-07-06T02:10:41.255Z,79.64
2018-07-06T02:13:20.807Z,79.12
2018-07-06T02:16:00.706Z,78.92
2018-07-06T02:18:40.835Z,78.56
2018-07-06T02:21:20.993Z,78.35
2018-07-06T02:24:00.779Z,78.56
2018-07-06T02:26:40.558Z,79.80
2018-07-06T02:29:20.740Z,79.69
2018-07-06T02:32:00.518Z,79.03
2018-07-06T02:34:41.038Z,79.27
2018-07-06T02:37:21.369Z,79.40
2018-07-06T02:40:01.880Z,79.08
2018-07-06T02:42:42.397Z,78.85
2018-07-06T02:45:22.160Z,78.91
2018-07-06T02:48:02.034Z,79.18
2018-07-06T02:50:41.732Z,79.34
2018-07-06T02:53:21.540Z,79.10
2018-07-06T02:56:01.323Z,79.44
2018-07-06T02:58:41.316Z,79.25
2018-07-06T03:01:21.198Z,80.20
2018-07-06T03:04:01.603Z,79.93
2018-07-06T03:06:41.585Z,79.52
2018-07-06T03:09:21.550Z,79.11
2018-07-06T03:12:01.546Z,79.66
2018-07-06T03:14:41.393Z,79.13
2018-07-06T03:17:22.527Z,79.46
2018-07-06T03:20:02.273Z,79.05
2018-07-06T03:22:41.988Z,79.12
2018-07-06T03:25:21.610Z,78.91
2018-07-06T03:28:01.284Z,79.29
2018-07-06T03:30:41.154Z,79.25
2018-07-06T03:33:20.928Z,79.30
2018-07-06T03:36:00.705Z,79.57
2018-07-06T03:38:41.314Z,79.32
2018-07-06T03:41:21.163Z,78.83
2018-07-06T03:44:01.097Z,78.73
2018-07-06T03:46:40.915Z,79.01
2018-07-06T03:49:20.488Z,78.94
2018-07-06T03:52:00.253Z,79.45
2018-07-06T03:54:39.858Z,79.23
2018-07-06T03:57:19.852Z,79.10
2018-07-06T03:59:59.669Z,79.21
2018-07-06T04:02:40.243Z,79.60
2018-07-06T04:05:20.036Z,79.30
2018-07-06T04:08:00.723Z,79.33
2018-07-06T04:10:40.474Z,79.50
2018-07-06T04:13:20.424Z,80.08
2018-07-06T04:16:00.285Z,80.68
2018-07-06T04:18:39.871Z,80.11
2018-07-06T04:21:19.575Z,80.38
2018-07-06T04:23:59.481Z,80.68
2018-07-06T04:26:39.181Z,80.23
2018-07-06T04:29:19.676Z,80.21
2018-07-06T04:32:00.211Z,80.16
2018-07-06T04:34:40.027Z,80.93
2018-07-06T04:37:19.784Z,80.35
2018-07-06T04:39:59.312Z,80.26
2018-07-06T04:42:39.007Z,80.14
2018-07-06T04:45:18.742Z,80.46
2018-07-06T04:47:59.030Z,80.86
2018-07-06T04:50:39.293Z,80.23
2018-07-06T04:53:19.102Z,80.12
2018-07-06T04:55:58.686Z,80.83
2018-07-06T04:58:38.936Z,80.72
2018-07-06T05:01:18.686Z,81.50
2018-07-06T05:03:58.329Z,81.63
2018-07-06T05:06:38.910Z,81.13
2018-07-06T05:09:18.574Z,82.00
2018-07-06T05:11:58.291Z,81.69
2018-07-06T05:14:38.738Z,81.23
2018-07-06T05:17:18.662Z,81.61
2018-07-06T05:19:58.401Z,81.22
2018-07-06T05:22:38.193Z,81.28
2018-07-06T05:25:17.711Z,81.12
2018-07-06T05:27:57.404Z,81.21
2018-07-06T05:30:38.106Z,81.40
2018-07-06T05:33:17.855Z,81.04
2018-07-06T05:35:57.506Z,80.76
2018-07-06T05:38:37.278Z,80.96
2018-07-06T05:41:17.013Z,80.92
2018-07-06T05:43:56.901Z,81.23
2018-07-06T05:46:36.553Z,81.29
2018-07-06T05:49:16.396Z,81.24
2018-07-06T05:51:56.058Z,81.33
2018-07-06T05:54:35.756Z,81.02
2018-07-06T05:57:15.507Z,80.69
2018-07-06T05:59:55.210Z,80.58
2018-07-06T06:02:34.909Z,80.09
2018-07-06T06:05:14.796Z,80.17
2018-07-06T06:07:42.078Z,81.34
2018-07-06T06:10:10.919Z,81.71
2018-07-06T06:12:39.484Z,81.12
2018-07-06T06:15:08.182Z,81.81
2018-07-06T06:17:36.846Z,81.41
2018-07-06T06:20:05.552Z,80.51
2018-07-06T06:22:34.158Z,80.80
2018-07-06T06:25:02.756Z,80.77
2018-07-06T06:27:31.832Z,81.49
2018-07-06T06:30:00.639Z,82.24
2018-07-06T06:32:29.356Z,81.26
2018-07-06T06:34:57.959Z,81.31
2018-07-06T06:37:26.789Z,80.95
2018-07-06T06:39:55.511Z,80.57
2018-07-06T06:42:24.201Z,80.37
2018-07-06T06:44:53.847Z,80.64
2018-07-06T06:47:22.639Z,81.91
2018-07-06T06:49:51.257Z,82.14
2018-07-06T06:52:20.182Z,82.10
2018-07-06T06:54:48.816Z,81.82
2018-07-06T06:57:17.615Z,81.74
2018-07-06T06:59:46.313Z,81.76
2018-07-06T07:02:15.056Z,81.42
2018-07-06T07:04:43.805Z,82.02
2018-07-06T07:07:12.494Z,82.80
2018-07-06T07:09:41.191Z,82.15
2018-07-06T07:12:10.421Z,82.39
2018-07-06T07:14:39.135Z,82.44
2018-07-06T07:17:07.813Z,82.02
2018-07-06T07:19:36.460Z,81.81
2018-07-06T07:22:05.059Z,82.80
2018-07-06T07:24:33.733Z,83.23
2018-07-06T07:27:02.393Z,82.46
2018-07-06T07:29:31.726Z,81.98
2018-07-06T07:32:00.573Z,82.27
2018-07-06T07:34:29.529Z,81.97
2018-07-06T07:36:58.323Z,81.62
2018-07-06T07:39:26.954Z,81.44
2018-07-06T07:41:56.857Z,82.38
2018-07-06T07:44:25.432Z,82.65
2018-07-06T07:46:54.388Z,82.44
2018-07-06T07:49:23.061Z,82.97
2018-07-06T07:52:08.291Z,81.94
2018-07-06T07:54:56.386Z,81.94
2018-07-06T07:57:25.128Z,82.14
2018-07-06T07:59:54.840Z,81.72
2018-07-06T08:02:23.686Z,81.79
2018-07-06T08:04:53.692Z,81.47
2018-07-06T08:07:23.374Z,81.54
2018-07-06T08:09:51.963Z,81.06
2018-07-06T08:12:20.577Z,80.59
2018-07-06T08:14:49.557Z,81.05
2018-07-06T08:17:18.156Z,79.68
2018-07-06T08:19:46.821Z,78.82
2018-07-06T08:22:15.490Z,79.72
2018-07-06T08:24:44.116Z,80.16
2018-07-06T08:27:12.689Z,79.40
2018-07-06T08:29:41.358Z,79.50
2018-07-06T08:32:09.966Z,79.71
2018-07-06T08:34:49.710Z,80.62
2018-07-06T08:37:30.979Z,80.47
2018-07-06T08:40:00.330Z,80.19
2018-07-06T08:42:30.857Z,81.12
2018-07-06T08:45:00.210Z,80.40
2018-07-06T08:47:29.460Z,79.90
2018-07-06T08:49:58.835Z,79.90
2018-07-06T08:52:27.827Z,78.80
2018-07-06T08:54:56.487Z,78.63
2018-07-06T08:57:26.361Z,77.84
2018-07-06T08:59:55.271Z,78.19
2018-07-06T09:02:25.026Z,77.73
2018-07-06T09:04:54.597Z,76.53
2018-07-06T09:07:24.068Z,75.52
2018-07-06T09:09:53.153Z,74.90
2018-07-06T09:12:21.815Z,75.00
2018-07-06T09:14:51.495Z,74.40
2018-07-06T09:17:20.759Z,73.79
2018-07-06T09:19:49.978Z,72.79
2018-07-06T09:22:18.878Z,69.87
2018-07-06T09:24:48.717Z,68.70
2018-07-06T09:27:17.496Z,70.13
2018-07-06T09:29:46.098Z,68.67
2018-07-06T09:32:14.650Z,67.34
2018-07-06T09:34:43.581Z,68.00
2018-07-06T09:37:12.355Z,67.55
2018-07-06T09:39:41.931Z,68.60
2018-07-06T09:42:10.644Z,68.46
2018-07-06T09:44:39.401Z,66.06
2018-07-06T09:47:08.968Z,66.97
2018-07-06T09:49:37.685Z,66.66
2018-07-06T09:52:06.353Z,64.50
2018-07-06T09:54:35.094Z,65.03
2018-07-06T09:57:03.752Z,65.12
2018-07-06T09:59:33.690Z,62.05
2018-07-06T10:02:02.387Z,63.01
2018-07-06T10:04:31.580Z,64.04
2018-07-06T10:07:00.258Z,61.12
2018-07-06T10:09:29.059Z,59.75
2018-07-06T10:11:57.815Z,62.00
2018-07-06T10:14:26.414Z,61.36
2018-07-06T10:16:55.151Z,61.46
2018-07-06T10:19:24.525Z,62.08
2018-07-06T10:21:53.158Z,62.15
2018-07-06T10:24:21.811Z,61.91
2018-07-06T10:26:50.550Z,59.24
2018-07-06T10:29:36.557Z,59.91
2018-07-06T10:32:21.927Z,59.60
2018-07-06T10:34:50.683Z,60.11
2018-07-06T10:37:19.984Z,58.79
2018-07-06T10:39:49.266Z,59.17
2018-07-06T10:42:17.896Z,59.55
2018-07-06T10:44:47.186Z,59.15
2018-07-06T10:47:15.900Z,58.55
2018-07-06T10:49:44.756Z,58.34
2018-07-06T10:52:14.746Z,58.35
2018-07-06T10:54:44.025Z,58.81
2018-07-06T10:57:12.862Z,58.55
2018-07-06T10:59:41.524Z,58.04
2018-07-06T11:02:10.268Z,55.40
2018-07-06T11:04:39.119Z,58.88
2018-07-06T11:07:08.372Z,57.02
2018-07-06T11:12:20.049Z,58.83
2018-07-06T11:14:49.109Z,58.75
2018-07-06T11:17:17.761Z,56.47
2018-07-06T11:19:46.513Z,57.02
2018-07-06T11:22:15.346Z,55.39
2018-07-06T11:24:44.065Z,55.01
2018-07-06T11:27:12.708Z,54.95
2018-07-06T11:29:41.339Z,55.32
2018-07-06T11:32:10.776Z,54.29
2018-07-06T11:34:40.137Z,54.35
2018-07-06T11:37:09.372Z,55.16
2018-07-06T11:39:38.104Z,55.17
2018-07-06T11:42:06.927Z,56.25
2018-07-06T11:44:37.196Z,54.58
2018-07-06T11:47:07.573Z,54.64
2018-07-06T11:49:36.252Z,54.84
2018-07-06T11:52:05.399Z,54.37
2018-07-06T11:54:34.718Z,55.21
2018-07-06T11:57:04.632Z,53.86
2018-07-06T11:59:33.310Z,53.13
2018-07-06T12:02:02.056Z,54.26
2018-07-06T12:04:30.813Z,56.68
2018-07-06T12:06:59.579Z,58.23
2018-07-06T12:09:28.511Z,58.19
2018-07-06T12:11:57.577Z,58.60
2018-07-06T12:14:26.927Z,59.78
2018-07-06T12:16:55.539Z,59.95
2018-07-06T12:19:24.875Z,59.83
2018-07-06T12:22:05.676Z,59.48
2018-07-06T12:24:42.355Z,58.76
2018-07-06T12:27:27.916Z,57.97
2018-07-06T12:30:01.252Z,59.25
2018-07-06T12:32:30.880Z,58.39
2018-07-06T12:35:05.503Z,59.55
2018-07-06T12:37:34.142Z,65.60
2018-07-06T12:40:03.536Z,60.86
2018-07-06T12:42:34.706Z,61.83
2018-07-06T12:45:04.250Z,60.64
2018-07-06T12:47:33.479Z,59.75
2018-07-06T12:50:02.225Z,59.59
2018-07-06T12:52:30.960Z,59.75
2018-07-06T12:54:59.675Z,60.44
2018-07-06T12:57:31.182Z,61.38
2018-07-06T13:00:01.006Z,58.83
2018-07-06T13:02:32.299Z,54.12
2018-07-06T13:05:00.982Z,49.69
2018-07-06T13:07:30.463Z,49.59
2018-07-06T13:09:59.068Z,44.41
2018-07-06T13:12:27.665Z,44.20
2018-07-06T13:14:56.343Z,41.20
2018-07-06T13:17:25.773Z,41.78
2018-07-06T13:19:54.575Z,38.86
2018-07-06T13:22:23.304Z,38.99
2018-07-06T13:24:52.402Z,37.00
2018-07-06T13:27:21.898Z,41.49
2018-07-06T13:29:50.728Z,37.44
2018-07-06T13:32:20.342Z,36.98
2018-07-06T13:34:49.285Z,35.46
2018-07-06T13:37:18.074Z,35.95
2018-07-06T13:39:46.723Z,34.44
2018-07-06T13:42:15.613Z,34.60
2018-07-06T13:44:44.407Z,34.34
2018-07-06T13:47:13.100Z,36.92
2018-07-06T13:49:41.940Z,36.20
2018-07-06T13:52:10.620Z,35.72
2018-07-06T13:54:39.348Z,36.24
2018-07-06T13:57:10.171Z,37.79
2018-07-06T13:59:40.174Z,38.23
2018-07-06T14:02:09.236Z,39.08
2018-07-06T14:04:38.881Z,40.38
2018-07-06T14:07:07.809Z,40.53
2018-07-06T14:09:36.739Z,41.30
2018-07-06T14:12:05.389Z,40.62
2018-07-06T14:14:35.331Z,40.75
2018-07-06T14:17:04.149Z,42.10
2018-07-06T14:19:33.434Z,44.13
2018-07-06T14:22:02.200Z,44.58
2018-07-06T14:24:30.959Z,45.36
2018-07-06T14:26:59.929Z,45.57
2018-07-06T14:29:30.274Z,46.79
2018-07-06T14:32:03.137Z,48.58
2018-07-06T14:34:32.572Z,48.49
2018-07-06T14:37:02.465Z,49.76
2018-07-06T14:39:31.357Z,49.38
2018-07-06T14:42:01.390Z,49.69
2018-07-06T14:44:30.049Z,51.15
2018-07-06T14:46:58.899Z,51.25
2018-07-06T14:49:27.537Z,51.80
2018-07-06T14:51:57.484Z,50.83
2018-07-06T14:54:28.053Z,49.31
2018-07-06T14:56:56.830Z,47.50
2018-07-06T14:59:27.134Z,47.86
2018-07-06T15:01:56.531Z,48.65
2018-07-06T15:04:26.621Z,48.60
2018-07-06T15:06:55.753Z,49.14
2018-07-06T15:09:25.472Z,49.40
2018-07-06T15:11:54.242Z,49.66
2018-07-06T15:14:23.001Z,51.24
2018-07-06T15:16:51.712Z,50.47
2018-07-06T15:19:20.436Z,50.12
2018-07-06T15:21:49.124Z,49.20
2018-07-06T15:24:17.798Z,49.20
2018-07-06T15:26:46.520Z,49.64
2018-07-06T15:29:15.454Z,50.14
2018-07-06T15:31:45.235Z,48.74
2018-07-06T15:34:13.941Z,48.64
2018-07-06T15:36:42.732Z,49.17
2018-07-06T15:39:11.452Z,49.23
2018-07-06T15:41:40.201Z,47.36
2018-07-06T15:44:10.106Z,47.68
2018-07-06T15:46:39.056Z,47.51
2018-07-06T15:49:07.762Z,47.23
2018-07-06T15:51:37.451Z,49.24
2018-07-06T15:54:06.139Z,48.62
2018-07-06T15:56:34.860Z,48.09
2018-07-06T15:59:03.498Z,48.26
2018-07-06T16:01:32.217Z,48.62
2018-07-06T16:04:01.610Z,47.31
2018-07-06T16:06:31.258Z,46.77
2018-07-06T16:08:59.939Z,46.32
2018-07-06T16:11:28.702Z,46.71
2018-07-06T16:13:57.271Z,46.63
2018-07-06T16:16:25.980Z,46.54
2018-07-06T16:18:56.329Z,47.23
2018-07-06T16:21:25.406Z,47.31
2018-07-06T16:23:54.596Z,46.83
2018-07-06T16:26:24.211Z,47.20
2018-07-06T16:28:54.286Z,46.61
2018-07-06T16:31:22.881Z,48.11
2018-07-06T16:33:51.577Z,49.20
2018-07-06T16:36:20.211Z,50.62
2018-07-06T16:38:48.902Z,47.96
2018-07-06T16:41:17.638Z,48.84
2018-07-06T16:43:46.371Z,47.40
2018-07-06T16:46:15.329Z,47.23
2018-07-06T16:48:44.000Z,47.53
2018-07-06T16:51:12.671Z,48.41
2018-07-06T16:53:41.475Z,48.64
2018-07-06T16:56:11.541Z,47.16
2018-07-06T16:58:40.251Z,46.68
2018-07-06T17:01:09.168Z,46.38
2018-07-06T17:03:37.991Z,47.54
2018-07-06T17:06:06.721Z,46.91
2018-07-06T17:08:36.106Z,47.98
2018-07-06T17:11:04.889Z,48.55
2018-07-06T17:13:33.515Z,47.41
2018-07-06T17:16:02.204Z,47.07
2018-07-06T17:18:32.257Z,47.43
2018-07-06T17:21:03.178Z,46.73
2018-07-06T17:23:32.462Z,46.84
2018-07-06T17:26:01.142Z,47.47
2018-07-06T17:28:30.263Z,47.21
2018-07-06T17:31:09.024Z,47.21
2018-07-06T17:33:38.102Z,47.93
2018-07-06T17:36:07.557Z,47.80
2018-07-06T17:38:38.794Z,47.82
2018-07-06T17:41:07.473Z,48.80
2018-07-06T17:43:36.190Z,48.77
2018-07-06T17:46:05.925Z,48.72
2018-07-06T17:48:34.715Z,48.95
2018-07-06T17:51:04.445Z,48.85
2018-07-06T17:53:34.017Z,49.80
2018-07-06T17:56:03.557Z,49.13
2018-07-06T17:58:32.432Z,49.26
2018-07-06T18:01:01.266Z,49.14
2018-07-06T18:03:30.040Z,50.29
2018-07-06T18:05:59.564Z,49.99
2018-07-06T18:08:28.209Z,50.26
2018-07-06T18:10:56.859Z,49.58
2018-07-06T18:13:26.366Z,50.90
2018-07-06T18:15:56.191Z,50.33
2018-07-06T18:18:24.850Z,50.64
2018-07-06T18:20:53.940Z,51.64
2018-07-06T18:23:22.684Z,52.40
2018-07-06T18:25:51.444Z,52.69
2018-07-06T18:28:20.135Z,52.24
2018-07-06T18:30:48.918Z,52.80
2018-07-06T18:33:18.542Z,52.56
2018-07-06T18:35:47.656Z,53.03
2018-07-06T18:38:16.326Z,53.35
2018-07-06T18:40:45.168Z,53.28
2018-07-06T18:43:14.073Z,53.61
2018-07-06T18:45:42.905Z,53.58
2018-07-06T18:48:11.612Z,54.67
2018-07-06T18:50:40.669Z,54.22
2018-07-06T18:53:10.010Z,54.83
2018-07-06T18:55:39.191Z,55.21
2018-07-06T18:58:08.685Z,55.44
2018-07-06T19:00:37.440Z,55.18
2018-07-06T19:03:06.254Z,55.17
2018-07-06T19:05:35.057Z,54.73
2018-07-06T19:08:03.846Z,54.99
2018-07-06T19:10:32.555Z,55.77
2018-07-06T19:13:01.614Z,55.34
2018-07-06T19:15:30.731Z,56.16
2018-07-06T19:17:59.395Z,56.17
2018-07-06T19:20:28.122Z,55.88
2018-07-06T19:22:56.857Z,56.15
2018-07-06T19:25:25.687Z,56.03
2018-07-06T19:27:55.383Z,55.77
2018-07-06T19:30:24.085Z,56.22
2018-07-06T19:32:52.958Z,57.00
2018-07-06T19:35:21.707Z,57.40
2018-07-06T19:37:50.542Z,56.97
2018-07-06T19:40:19.400Z,56.60
2018-07-06T19:42:49.206Z,57.72
2018-07-06T19:45:17.921Z,57.24
2018-07-06T19:47:46.581Z,58.08
2018-07-06T19:50:15.979Z,58.08
2018-07-06T19:52:48.386Z,59.00
2018-07-06T19:55:18.462Z,59.76
2018-07-06T19:57:47.243Z,60.14
2018-07-06T20:00:17.065Z,59.79
2018-07-06T20:02:45.783Z,60.19
2018-07-06T20:05:15.118Z,59.66
2018-07-06T20:07:44.021Z,60.39
2018-07-06T20:10:12.731Z,59.62
2018-07-06T20:12:41.789Z,60.04
2018-07-06T20:15:10.535Z,60.00
2018-07-06T20:17:39.255Z,60.08
2018-07-06T20:20:08.906Z,60.70
2018-07-06T20:22:37.563Z,60.31
2018-07-06T20:25:06.645Z,59.88
2018-07-06T20:27:35.305Z,60.24
2018-07-06T20:30:04.097Z,59.68
2018-07-06T20:32:32.746Z,60.21
2018-07-06T20:35:02.361Z,61.01
2018-07-06T20:37:31.072Z,61.83
2018-07-06T20:39:59.772Z,62.05
2018-07-06T20:42:28.524Z,60.68
2018-07-06T20:44:57.597Z,61.05
2018-07-06T20:47:26.499Z,61.04
2018-07-06T20:49:55.281Z,60.60
2018-07-06T20:52:24.005Z,60.96
2018-07-06T20:54:52.729Z,61.59
2018-07-06T20:57:21.399Z,62.72
2018-07-06T20:59:50.143Z,62.90
2018-07-06T21:02:18.834Z,62.93
2018-07-06T21:04:47.491Z,62.99
2018-07-06T21:07:16.817Z,63.14
2018-07-06T21:09:46.098Z,63.20
2018-07-06T21:12:15.448Z,63.29
2018-07-06T21:14:45.599Z,64.06
2018-07-06T21:17:15.030Z,63.74
2018-07-06T21:19:43.977Z,63.63
2018-07-06T21:22:12.899Z,63.80
2018-07-06T21:24:41.522Z,63.90
2018-07-06T21:27:10.399Z,64.32
2018-07-06T21:29:39.709Z,64.26
2018-07-06T21:32:09.225Z,64.72
2018-07-06T21:34:38.530Z,64.81
2018-07-06T21:37:08.019Z,65.20
2018-07-06T21:39:37.303Z,65.13
2018-07-06T21:42:06.122Z,65.31
2018-07-06T21:44:34.951Z,64.86
2018-07-06T21:47:04.813Z,64.72
2018-07-06T21:49:33.523Z,64.62
2018-07-06T21:52:02.331Z,64.02
2018-07-06T21:54:31.887Z,64.62
2018-07-06T21:57:01.647Z,64.54
2018-07-06T21:59:31.009Z,64.77
2018-07-06T22:02:00.938Z,64.83
2018-07-06T22:04:29.941Z,65.14
2018-07-06T22:06:58.636Z,65.28
2018-07-06T22:09:27.386Z,65.62
2018-07-06T22:11:56.759Z,65.72
2018-07-06T22:14:27.026Z,65.31
2018-07-06T22:16:56.143Z,65.41
2018-07-06T22:19:26.160Z,65.64
2018-07-06T22:21:55.669Z,65.54
2018-07-06T22:24:24.885Z,66.38
2018-07-06T22:26:54.211Z,67.06
2018-07-06T22:29:22.968Z,66.97
2018-07-06T22:31:52.017Z,67.22
2018-07-06T22:34:20.788Z,67.28
2018-07-06T22:36:49.430Z,68.00
2018-07-06T22:39:18.056Z,68.20
2018-07-06T22:41:46.730Z,68.02
2018-07-06T22:44:15.353Z,67.74
2018-07-06T22:46:44.809Z,68.11
2018-07-06T22:49:14.711Z,68.13
2018-07-06T22:51:45.532Z,68.04
2018-07-06T22:54:15.025Z,68.07
2018-07-06T22:56:44.330Z,68.70
2018-07-06T22:59:12.943Z,68.87
2018-07-06T23:01:42.834Z,68.55
2018-07-06T23:04:12.374Z,68.43
2018-07-06T23:06:41.405Z,68.94
2018-07-06T23:09:10.030Z,68.37
2018-07-06T23:11:38.866Z,68.71
2018-07-06T23:14:07.828Z,69.05
2018-07-06T23:16:36.480Z,69.21
2018-07-06T23:19:05.836Z,69.13
2018-07-06T23:21:35.247Z,68.90
2018-07-06T23:24:05.128Z,68.96
2018-07-06T23:26:35.306Z,68.97
2018-07-06T23:29:04.074Z,68.37
2018-07-06T23:31:33.364Z,69.05
2018-07-06T23:34:02.833Z,69.42
2018-07-06T23:36:31.517Z,69.30
2018-07-06T23:39:00.125Z,69.01
2018-07-06T23:41:29.206Z,68.71
2018-07-06T23:43:59.355Z,68.75
2018-07-06T23:46:29.620Z,68.92
2018-07-06T23:48:58.858Z,69.05
2018-07-06T23:51:28.196Z,69.42
2018-07-06T23:53:57.552Z,69.54
2018-07-06T23:56:26.174Z,69.58
2018-07-06T23:58:54.792Z,70.05
